Time;durP1;ratioP1;P1;durP2;ratioP2;P2;SDS_P1;SDS_P2;PMS_P1;PMS_P2;Temp;Humidity;BMP_temperature;BMP_pressure;BME280_temperature;BME280_humidity;BME280_pressure;Samples;Min_cycle;Max_cycle;Signal;HPM_P1;HPM_P2
2022/02/18 00:00:54;;;;;;;21.75;3.25;;;;;;;7.97;66.61;98609.81;5071327;28;20495;-73
2022/02/18 00:03:21;;;;;;;20.23;2.47;;;;;;;7.99;66.70;98620.38;5065129;28;20502;-73
2022/02/18 00:05:47;;;;;;;20.70;3.38;;;;;;;7.90;66.88;98603.50;5065635;28;20058;-72
2022/02/18 00:08:12;;;;;;;19.75;3.95;;;;;;;7.64;67.62;98577.13;5063728;28;20032;-72
2022/02/18 00:10:37;;;;;;;21.17;2.90;;;;;;;7.69;67.46;98596.25;5062737;28;20021;-72
2022/02/18 00:13:02;;;;;;;23.50;2.75;;;;;;;7.68;68.15;98610.75;5063481;28;20028;-74
2022/02/18 00:15:28;;;;;;;20.00;2.65;;;;;;;7.61;68.25;98621.41;5066056;28;20040;-72
2022/02/18 00:17:54;;;;;;;26.63;3.95;;;;;;;7.52;68.49;98611.78;5060565;28;20028;-72
2022/02/18 00:20:19;;;;;;;17.40;2.53;;;;;;;7.46;68.57;98612.53;5062503;28;20025;-73
2022/02/18 00:22:45;;;;;;;21.17;2.42;;;;;;;7.50;68.26;98613.00;5062097;28;20052;-72
2022/02/18 00:25:10;;;;;;;20.63;3.13;;;;;;;7.26;68.43;98593.47;5064232;28;20416;-73
2022/02/18 00:27:40;;;;;;;20.33;2.72;;;;;;;7.42;68.58;98612.09;5061391;28;20029;-72
2022/02/18 00:30:07;;;;;;;18.55;2.83;;;;;;;7.32;69.48;98616.09;5065477;28;20024;-72
2022/02/18 00:32:33;;;;;;;21.60;2.47;;;;;;;7.30;69.40;98612.75;5058705;28;20395;-71
2022/02/18 00:34:59;;;;;;;18.25;3.00;;;;;;;7.23;69.64;98601.88;5067916;28;20027;-72
2022/02/18 00:37:25;;;;;;;21.38;2.88;;;;;;;7.17;68.98;98575.72;5069094;28;20035;-72
2022/02/18 00:39:51;;;;;;;19.55;2.97;;;;;;;7.32;69.25;98610.72;5068640;28;20020;-73
2022/02/18 00:42:16;;;;;;;13.60;2.67;;;;;;;7.40;68.47;98614.13;5068521;28;20028;-72
2022/02/18 00:44:43;;;;;;;18.02;2.30;;;;;;;7.29;68.63;98585.00;5067239;28;20024;-73
2022/02/18 00:47:09;;;;;;;17.90;2.78;;;;;;;7.22;68.45;98579.53;5065882;28;20028;-73
2022/02/18 00:49:35;;;;;;;13.85;2.55;;;;;;;7.38;68.50;98599.19;5083684;28;20051;-73
2022/02/18 00:52:00;;;;;;;19.17;2.63;;;;;;;7.24;68.87;98588.25;5067505;28;20914;-73
2022/02/18 00:54:25;;;;;;;16.30;2.53;;;;;;;7.43;68.75;98623.69;5067881;28;20054;-73
2022/02/18 00:56:51;;;;;;;20.83;2.33;;;;;;;7.53;68.47;98640.38;5067749;28;20665;-73
2022/02/18 00:59:16;;;;;;;20.20;2.40;;;;;;;7.51;68.18;98634.34;5066337;28;20127;-73
2022/02/18 01:01:42;;;;;;;24.65;3.22;;;;;;;7.40;68.85;98638.34;5068063;28;20020;-73
2022/02/18 01:04:08;;;;;;;17.02;2.63;;;;;;;7.39;68.81;98643.94;5059673;28;20438;-72
2022/02/18 01:06:34;;;;;;;13.85;2.40;;;;;;;7.30;69.53;98653.09;5065060;28;20430;-72
2022/02/18 01:08:59;;;;;;;12.15;2.08;;;;;;;7.19;69.41;98631.03;5065447;28;20039;-72
2022/02/18 01:11:24;;;;;;;19.35;2.67;;;;;;;7.03;69.71;98626.66;5059863;28;20477;-72
2022/02/18 01:13:50;;;;;;;20.75;2.28;;;;;;;7.17;69.96;98630.38;5066224;28;20020;-72
2022/02/18 01:16:15;;;;;;;13.80;2.15;;;;;;;7.27;69.57;98624.72;5061904;28;20135;-71
2022/02/18 01:18:41;;;;;;;22.38;3.50;;;;;;;7.30;69.20;98612.75;5060620;28;20028;-72
2022/02/18 01:21:06;;;;;;;15.90;2.70;;;;;;;7.28;69.44;98612.09;5060931;28;20058;-72
2022/02/18 01:23:32;;;;;;;17.38;3.17;;;;;;;7.27;69.74;98605.03;5062029;28;20062;-72
2022/02/18 01:25:57;;;;;;;18.20;2.80;;;;;;;7.36;69.60;98617.38;5064181;28;20036;-73
2022/02/18 01:28:23;;;;;;;26.10;2.63;;;;;;;7.35;69.54;98623.78;5082938;28;20049;-73
2022/02/18 01:30:48;;;;;;;13.00;3.75;;;;;;;7.35;69.74;98621.09;5069973;28;20048;-72
2022/02/18 01:33:13;;;;;;;20.95;3.35;;;;;;;7.33;69.72;98623.13;5093609;28;20128;-71
2022/02/18 01:35:39;;;;;;;14.10;2.80;;;;;;;7.39;69.68;98614.31;5088014;28;20017;-72
2022/02/18 01:38:05;;;;;;;16.80;2.75;;;;;;;7.35;69.56;98604.94;5104304;28;20025;-73
2022/02/18 01:40:31;;;;;;;18.10;2.90;;;;;;;7.30;70.00;98591.22;5088797;28;20076;-72
2022/02/18 01:42:57;;;;;;;16.25;2.53;;;;;;;7.17;69.63;98581.09;5088819;28;20024;-71
2022/02/18 01:45:23;;;;;;;19.55;2.50;;;;;;;7.29;69.51;98586.88;5088731;28;20066;-71
2022/02/18 01:47:48;;;;;;;14.98;2.72;;;;;;;7.39;69.79;98609.78;5091413;28;20028;-70
2022/02/18 01:50:14;;;;;;;21.10;2.67;;;;;;;7.46;69.56;98601.75;5091717;28;20020;-72
2022/02/18 01:52:46;;;;;;;20.17;3.03;;;;;;;7.45;69.68;98590.16;5093085;28;20084;-71
2022/02/18 01:55:13;;;;;;;17.08;2.60;;;;;;;7.46;69.72;98596.38;5091921;28;20565;-71
2022/02/18 01:57:43;;;;;;;18.05;3.13;;;;;;;7.36;69.96;98585.06;5089372;28;20028;-72
2022/02/18 02:00:10;;;;;;;18.70;2.70;;;;;;;7.49;69.89;98597.84;5090143;28;20029;-72
2022/02/18 02:02:35;;;;;;;15.32;1.92;;;;;;;7.45;69.53;98609.00;5089777;28;20016;-72
2022/02/18 02:05:01;;;;;;;14.88;2.80;;;;;;;7.46;69.68;98607.16;5069826;28;20020;-73
2022/02/18 02:07:27;;;;;;;20.00;2.58;;;;;;;7.40;69.19;98602.53;5070403;28;20115;-73
2022/02/18 02:09:53;;;;;;;23.55;2.67;;;;;;;7.52;68.91;98584.88;5084026;28;20042;-73
2022/02/18 02:12:18;;;;;;;15.00;2.42;;;;;;;7.64;69.01;98591.41;5067146;28;20067;-72
2022/02/18 02:14:43;;;;;;;21.85;2.53;;;;;;;7.58;68.42;98584.09;5061950;28;20090;-74
2022/02/18 02:17:10;;;;;;;15.95;2.25;;;;;;;7.74;68.30;98593.81;5071337;28;20035;-73
2022/02/18 02:19:35;;;;;;;18.23;2.72;;;;;;;7.70;68.18;98576.34;5065434;28;20060;-73
2022/02/18 02:22:00;;;;;;;16.25;3.58;;;;;;;7.77;68.16;98582.66;5067679;28;20164;-72
2022/02/18 02:24:26;;;;;;;19.58;2.83;;;;;;;7.86;68.24;98591.47;5062820;28;21260;-72
2022/02/18 02:26:51;;;;;;;19.73;2.67;;;;;;;7.95;67.79;98584.91;5067550;28;20033;-73
2022/02/18 02:29:17;;;;;;;12.85;2.25;;;;;;;7.76;67.52;98529.00;5069634;28;20032;-73
2022/02/18 02:31:42;;;;;;;16.42;2.80;;;;;;;7.77;67.48;98530.66;5069848;28;20052;-73
2022/02/18 02:34:08;;;;;;;16.08;2.20;;;;;;;7.86;67.89;98543.81;5069997;28;20095;-73
2022/02/18 02:36:33;;;;;;;20.23;2.83;;;;;;;7.70;68.11;98533.28;5067633;28;20036;-71
2022/02/18 02:38:59;;;;;;;15.52;2.80;;;;;;;7.73;68.59;98556.28;5062974;28;20016;-74
2022/02/18 02:41:25;;;;;;;13.30;2.47;;;;;;;7.54;68.65;98526.28;5065036;28;20111;-73
2022/02/18 02:43:50;;;;;;;17.00;2.53;;;;;;;7.61;69.33;98564.88;5069667;28;20078;-71
2022/02/18 02:46:16;;;;;;;19.65;2.80;;;;;;;7.41;70.30;98561.13;5066076;28;20033;-73
2022/02/18 02:48:42;;;;;;;16.20;2.45;;;;;;;7.28;70.81;98572.56;5065806;28;20029;-73
2022/02/18 02:51:09;;;;;;;22.27;2.92;;;;;;;6.98;71.99;98534.09;5069901;28;20108;-72
2022/02/18 02:53:35;;;;;;;21.63;3.65;;;;;;;7.06;72.44;98552.81;5071101;28;20021;-72
2022/02/18 02:56:00;;;;;;;16.50;2.65;;;;;;;6.97;72.12;98551.28;5066674;28;20029;-73
2022/02/18 02:58:26;;;;;;;15.18;2.30;;;;;;;6.96;72.81;98549.59;5067210;28;20029;-73
2022/02/18 03:00:51;;;;;;;22.75;4.05;;;;;;;6.91;72.55;98543.94;5070056;28;20048;-72
2022/02/18 03:03:17;;;;;;;19.52;2.53;;;;;;;6.95;72.57;98534.47;5072609;28;20032;-73
2022/02/18 03:05:43;;;;;;;28.83;3.15;;;;;;;6.91;72.73;98522.41;5073196;28;20037;-72
2022/02/18 03:08:08;;;;;;;16.33;2.38;;;;;;;6.89;72.90;98519.06;5068458;28;20028;-72
2022/02/18 03:10:34;;;;;;;17.08;2.70;;;;;;;6.88;72.92;98512.88;5067730;28;20142;-72
2022/02/18 03:12:59;;;;;;;21.30;2.90;;;;;;;6.85;72.76;98515.09;5069420;28;20484;-73
2022/02/18 03:15:25;;;;;;;18.42;3.80;;;;;;;6.61;73.22;98494.72;5071427;28;20105;-72
2022/02/18 03:17:50;;;;;;;22.00;2.78;;;;;;;6.70;74.03;98510.56;5073201;28;20027;-73
2022/02/18 03:20:15;;;;;;;17.75;2.88;;;;;;;6.61;74.43;98511.69;5072069;28;20490;-72
2022/02/18 03:22:41;;;;;;;18.38;2.42;;;;;;;6.41;75.37;98511.38;5065897;28;20028;-72
2022/02/18 03:25:07;;;;;;;17.17;3.00;;;;;;;6.22;76.44;98512.75;5073600;28;20028;-73
2022/02/18 03:27:33;;;;;;;16.08;2.03;;;;;;;6.14;76.29;98505.59;5069131;28;20031;-72
2022/02/18 03:29:58;;;;;;;18.75;2.55;;;;;;;6.14;76.49;98510.16;5069902;28;20024;-72
2022/02/18 03:32:24;;;;;;;20.13;2.88;;;;;;;6.00;77.04;98500.19;5073957;28;20101;-72
2022/02/18 03:34:49;;;;;;;13.90;2.40;;;;;;;5.90;76.89;98474.41;5075735;28;20028;-72
2022/02/18 03:37:14;;;;;;;14.00;2.13;;;;;;;5.98;77.19;98500.38;5085783;28;20047;-73
2022/02/18 03:39:39;;;;;;;19.10;2.25;;;;;;;5.88;77.07;98497.91;5085435;28;20028;-71
2022/02/18 03:42:05;;;;;;;14.38;2.25;;;;;;;5.89;77.57;98469.22;5082641;28;20035;-72
2022/02/18 03:44:31;;;;;;;12.20;2.20;;;;;;;5.98;77.42;98495.03;5081483;28;20035;-71
2022/02/18 03:46:56;;;;;;;14.20;2.28;;;;;;;5.82;77.04;98474.50;5087596;28;20084;-72
2022/02/18 03:49:22;;;;;;;22.17;2.75;;;;;;;5.97;77.04;98496.00;5086988;28;20036;-71
2022/02/18 03:51:47;;;;;;;16.95;2.08;;;;;;;5.95;76.82;98483.78;5085507;28;20031;-71
2022/02/18 03:54:12;;;;;;;12.10;2.22;;;;;;;5.94;76.91;98488.31;5079432;28;20028;-71
2022/02/18 03:56:39;;;;;;;13.30;2.35;;;;;;;5.91;76.50;98469.88;5081521;28;20119;-71
2022/02/18 03:59:04;;;;;;;13.10;2.55;;;;;;;5.98;76.08;98486.97;5082949;28;20017;-71
2022/02/18 04:01:30;;;;;;;24.45;3.15;;;;;;;5.95;76.36;98481.09;5086192;28;20063;-71
2022/02/18 04:03:55;;;;;;;11.95;2.25;;;;;;;5.99;76.13;98477.06;5084759;28;20033;-72
2022/02/18 04:06:20;;;;;;;17.83;2.90;;;;;;;6.05;76.07;98479.84;5086376;28;20052;-71
2022/02/18 04:08:46;;;;;;;24.80;3.03;;;;;;;5.90;76.21;98474.41;5084286;28;20070;-72
2022/02/18 04:11:11;;;;;;;14.45;1.90;;;;;;;5.98;76.20;98470.03;5079339;28;20044;-72
2022/02/18 04:13:36;;;;;;;12.30;2.00;;;;;;;5.88;76.40;98456.81;5085324;28;20039;-71
2022/02/18 04:16:02;;;;;;;17.20;2.35;;;;;;;5.79;76.78;98464.13;5080130;28;20025;-76
2022/02/18 04:18:27;;;;;;;23.00;2.88;;;;;;;5.93;76.92;98475.91;5078092;28;20035;-74
2022/02/18 04:20:53;;;;;;;13.05;2.05;;;;;;;5.71;77.19;98454.28;5083082;28;20016;-76
2022/02/18 04:23:18;;;;;;;14.93;1.90;;;;;;;5.86;76.65;98448.94;5080088;28;20060;-75
2022/02/18 04:25:44;;;;;;;12.52;1.50;;;;;;;5.87;77.09;98468.59;5074697;28;20032;-76
2022/02/18 04:28:09;;;;;;;15.60;2.65;;;;;;;5.72;77.36;98452.44;5082100;28;20419;-75
2022/02/18 04:30:38;;;;;;;15.93;1.80;;;;;;;5.70;77.25;98436.50;5078267;28;20039;-76
2022/02/18 04:33:04;;;;;;;19.15;2.33;;;;;;;5.61;77.50;98426.03;5077624;28;20040;-76
2022/02/18 04:35:29;;;;;;;10.15;1.90;;;;;;;5.65;77.52;98436.19;5077276;28;20058;-77
2022/02/18 04:37:55;;;;;;;22.45;2.22;;;;;;;5.74;77.49;98436.13;5081123;28;20043;-77
2022/02/18 04:40:20;;;;;;;15.73;1.83;;;;;;;5.67;76.85;98401.97;5084184;28;20040;-76
2022/02/18 04:42:46;;;;;;;16.83;2.40;;;;;;;5.94;77.29;98448.06;5081431;28;20048;-73
2022/02/18 04:45:13;;;;;;;11.45;2.17;;;;;;;5.96;76.65;98431.78;5077257;28;20086;-74
2022/02/18 04:47:39;;;;;;;10.20;1.98;;;;;;;6.00;76.28;98411.56;5081111;28;20025;-73
2022/02/18 04:50:05;;;;;;;19.13;2.60;;;;;;;6.29;76.02;98426.91;5080529;28;20053;-73
2022/02/18 04:52:31;;;;;;;14.07;2.08;;;;;;;6.21;75.18;98382.16;5079859;28;20040;-72
2022/02/18 04:54:56;;;;;;;13.07;2.05;;;;;;;6.47;74.96;98405.00;5083464;28;20028;-71
2022/02/18 04:57:22;;;;;;;14.73;2.45;;;;;;;6.61;74.56;98397.97;5091088;28;20028;-75
2022/02/18 04:59:48;;;;;;;14.20;2.03;;;;;;;6.77;73.76;98397.75;5058804;28;20489;-78
2022/02/18 05:02:14;;;;;;;12.68;1.90;;;;;;;6.83;73.51;98405.03;5080442;28;20396;-75
2022/02/18 05:04:40;;;;;;;10.65;2.22;;;;;;;6.96;73.24;98396.28;5064495;28;20086;-75
2022/02/18 05:07:06;;;;;;;10.25;1.55;;;;;;;6.92;72.94;98384.25;5066049;28;20415;-75
2022/02/18 05:09:31;;;;;;;16.45;2.65;;;;;;;6.98;72.66;98380.81;5061227;28;20020;-79
2022/02/18 05:11:56;;;;;;;9.75;1.83;;;;;;;7.12;72.69;98414.88;5057122;22;20034;-77
2022/02/18 05:14:21;;;;;;;11.52;2.13;;;;;;;7.13;72.57;98396.91;5010441;28;20066;-77
2022/02/18 05:16:47;;;;;;;17.42;2.10;;;;;;;7.01;73.12;98386.63;5010485;28;20030;-77
2022/02/18 05:19:12;;;;;;;16.13;2.25;;;;;;;7.08;73.06;98392.09;5011928;28;20526;-76
2022/02/18 05:21:38;;;;;;;10.52;1.83;;;;;;;7.09;73.50;98384.84;5016324;28;20029;-74
2022/02/18 05:24:05;;;;;;;15.75;2.55;;;;;;;7.06;73.84;98372.59;5014919;28;20032;-77
2022/02/18 05:26:30;;;;;;;12.13;1.98;;;;;;;6.89;73.90;98336.22;5031176;28;20026;-80
2022/02/18 05:28:55;;;;;;;12.32;1.90;;;;;;;7.18;73.56;98351.44;5013938;28;20531;-72
2022/02/18 05:31:21;;;;;;;14.43;2.15;;;;;;;7.28;73.02;98341.13;5016363;28;20058;-75
2022/02/18 05:33:46;;;;;;;12.32;2.28;;;;;;;7.29;72.58;98321.28;5015636;28;20101;-76
2022/02/18 05:36:11;;;;;;;10.63;2.03;;;;;;;7.44;72.37;98329.25;5014320;28;20061;-74
2022/02/18 05:38:37;;;;;;;19.52;2.13;;;;;;;7.46;72.85;98327.22;5013761;28;20029;-71
2022/02/18 05:41:02;;;;;;;13.55;2.40;;;;;;;7.36;73.09;98314.13;5010133;28;20026;-77
2022/02/18 05:43:27;;;;;;;10.50;2.53;;;;;;;7.40;73.22;98318.06;5015374;28;20489;-75
2022/02/18 05:45:53;;;;;;;18.70;1.88;;;;;;;7.47;72.60;98313.56;5017949;28;20057;-75
2022/02/18 05:48:18;;;;;;;17.00;2.20;;;;;;;7.51;72.64;98292.47;5012335;28;20099;-75
2022/02/18 05:50:43;;;;;;;12.23;1.77;;;;;;;7.59;72.30;98299.56;5012960;28;20505;-76
2022/02/18 05:53:08;;;;;;;15.32;2.55;;;;;;;7.42;72.80;98283.72;5012582;28;20038;-76
2022/02/18 05:55:34;;;;;;;14.63;2.40;;;;;;;7.57;72.71;98280.94;5014453;28;20473;-76
2022/02/18 05:57:59;;;;;;;16.17;2.25;;;;;;;7.49;73.29;98270.28;5012607;28;20029;-75
2022/02/18 06:00:24;;;;;;;11.23;2.05;;;;;;;7.42;73.39;98253.28;5016267;28;20029;-75
2022/02/18 06:02:50;;;;;;;11.30;1.85;;;;;;;7.59;73.60;98280.72;5018500;28;20025;-76
2022/02/18 06:05:15;;;;;;;17.85;2.40;;;;;;;7.51;73.71;98262.88;5014174;28;20029;-76
2022/02/18 06:07:44;;;;;;;16.25;1.90;;;;;;;7.57;74.14;98280.94;5014246;28;20036;-76
2022/02/18 06:10:10;;;;;;;18.05;1.77;;;;;;;7.48;74.59;98265.97;5005556;28;20022;-74
2022/02/18 06:12:35;;;;;;;15.00;2.22;;;;;;;7.52;74.24;98256.47;5013596;28;20033;-76
2022/02/18 06:15:00;;;;;;;17.42;2.45;;;;;;;7.67;74.19;98264.41;5016020;28;20133;-75
2022/02/18 06:17:26;;;;;;;11.65;2.03;;;;;;;7.66;74.07;98254.69;5009019;28;20030;-75
2022/02/18 06:19:51;;;;;;;11.07;2.22;;;;;;;7.76;73.17;98246.25;5011216;28;20033;-74
2022/02/18 06:22:18;;;;;;;13.98;2.90;;;;;;;7.85;73.04;98250.44;5011727;28;20409;-72
2022/02/18 06:24:43;;;;;;;17.50;2.30;;;;;;;7.90;72.62;98258.75;5012355;28;20177;-75
2022/02/18 06:27:08;;;;;;;12.20;2.33;;;;;;;7.80;72.69;98229.47;5013433;28;20120;-72
2022/02/18 06:29:34;;;;;;;18.00;2.10;;;;;;;7.90;71.98;98237.19;5011686;28;20480;-75
2022/02/18 06:32:00;;;;;;;21.63;2.30;;;;;;;7.95;72.03;98237.44;5012673;28;20066;-77
2022/02/18 06:34:26;;;;;;;13.68;2.08;;;;;;;8.11;71.41;98226.28;5014185;28;20056;-74
2022/02/18 06:36:51;;;;;;;11.45;1.92;;;;;;;8.21;70.97;98235.88;5011739;28;20021;-77
2022/02/18 06:39:20;;;;;;;12.98;2.47;;;;;;;8.24;70.43;98227.38;5014636;28;20037;-76
2022/02/18 06:41:47;;;;;;;12.45;2.20;;;;;;;8.11;70.50;98218.22;5012007;28;20143;-78
2022/02/18 06:44:13;;;;;;;8.80;2.13;;;;;;;8.22;70.43;98226.75;5006307;28;20061;-76
2022/02/18 06:46:39;;;;;;;14.50;2.35;;;;;;;8.36;70.00;98233.84;5008708;28;20131;-74
2022/02/18 06:49:05;;;;;;;14.88;2.70;;;;;;;8.24;70.06;98201.25;5011946;28;20030;-77
2022/02/18 06:51:30;;;;;;;10.45;2.03;;;;;;;8.26;69.83;98203.78;5012175;28;20030;-77
2022/02/18 06:53:55;;;;;;;17.67;2.92;;;;;;;8.22;70.26;98191.72;5021772;28;20393;-79
2022/02/18 06:56:21;;;;;;;16.42;2.38;;;;;;;8.12;70.77;98175.94;5012006;28;20068;-76
2022/02/18 06:58:46;;;;;;;22.70;2.53;;;;;;;8.30;70.88;98195.03;5013532;28;20108;-75
2022/02/18 07:01:11;;;;;;;10.40;1.67;;;;;;;8.34;70.58;98179.31;5014234;28;20125;-73
2022/02/18 07:03:37;;;;;;;11.15;1.83;;;;;;;8.40;70.30;98189.31;5015488;28;20029;-76
2022/02/18 07:06:03;;;;;;;14.30;2.30;;;;;;;8.54;69.93;98180.22;5013708;28;20033;-78
2022/02/18 07:08:31;;;;;;;12.48;2.33;;;;;;;8.59;70.05;98182.28;5013634;28;20485;-73
2022/02/18 07:10:58;;;;;;;12.95;2.42;;;;;;;8.63;70.07;98183.53;5012040;28;20053;-76
2022/02/18 07:13:23;;;;;;;13.60;2.65;;;;;;;8.62;70.01;98175.63;5013729;28;20030;-76
2022/02/18 07:15:48;;;;;;;15.60;2.50;;;;;;;8.68;69.94;98181.06;5004823;28;20057;-76
2022/02/18 07:18:15;;;;;;;16.15;2.15;;;;;;;8.66;69.86;98153.47;5044364;28;20513;-77
2022/02/18 07:20:40;;;;;;;18.70;2.03;;;;;;;8.68;69.89;98154.09;5012207;28;20509;-74
2022/02/18 07:23:07;;;;;;;8.93;2.15;;;;;;;8.57;70.31;98135.84;5012942;28;20030;-76
2022/02/18 07:25:33;;;;;;;18.63;2.42;;;;;;;8.75;70.15;98165.72;5012213;28;20025;-77
2022/02/18 07:27:59;;;;;;;13.98;2.47;;;;;;;8.73;70.45;98169.66;5012792;28;20095;-75
2022/02/18 07:30:24;;;;;;;16.05;2.50;;;;;;;8.72;70.45;98157.19;5009777;28;20150;-75
2022/02/18 07:32:50;;;;;;;18.45;2.90;;;;;;;8.58;70.69;98142.06;5013921;28;20022;-76
2022/02/18 07:35:15;;;;;;;15.38;2.40;;;;;;;8.60;70.66;98127.31;5014118;28;20026;-76
2022/02/18 07:37:42;;;;;;;17.15;3.45;;;;;;;8.70;70.69;98151.19;5008647;28;20037;-76
2022/02/18 07:40:08;;;;;;;13.75;2.38;;;;;;;8.64;70.78;98142.03;5011574;28;20030;-76
2022/02/18 07:42:34;;;;;;;16.15;2.08;;;;;;;8.73;71.13;98131.91;5009127;28;20504;-76
2022/02/18 07:44:59;;;;;;;15.07;2.22;;;;;;;8.80;70.47;98132.69;5013427;28;20029;-76
2022/02/18 07:47:24;;;;;;;21.40;2.55;;;;;;;8.80;70.86;98132.69;5012150;28;20057;-74
2022/02/18 07:49:50;;;;;;;12.70;2.50;;;;;;;8.92;70.54;98122.13;5006632;28;20042;-75
2022/02/18 07:52:16;;;;;;;11.18;2.00;;;;;;;8.97;70.17;98133.13;5006044;28;20029;-74
2022/02/18 07:54:41;;;;;;;8.68;1.70;;;;;;;8.88;70.50;98116.34;5010102;28;20036;-75
2022/02/18 07:57:07;;;;;;;14.70;2.58;;;;;;;8.90;70.51;98102.63;5010314;28;20026;-74
2022/02/18 07:59:32;;;;;;;13.95;1.90;;;;;;;8.98;70.22;98114.00;5007348;28;20405;-72
2022/02/18 08:01:57;;;;;;;15.73;2.40;;;;;;;9.12;70.00;98112.13;5012731;28;20086;-73
2022/02/18 08:04:23;;;;;;;13.57;1.77;;;;;;;9.21;69.69;98101.94;5012842;28;20030;-73
2022/02/18 08:06:48;;;;;;;12.48;2.05;;;;;;;9.28;69.38;98113.53;5012227;28;20037;-73
2022/02/18 08:09:14;;;;;;;15.27;2.67;;;;;;;9.29;69.43;98104.41;5016993;28;20026;-75
2022/02/18 08:11:39;;;;;;;14.95;2.40;;;;;;;9.29;69.07;98080.09;5010167;28;20493;-75
2022/02/18 08:14:04;;;;;;;11.77;2.60;;;;;;;9.30;69.47;98065.59;5011343;28;20025;-75
2022/02/18 08:16:32;;;;;;;13.82;1.75;;;;;;;9.43;69.27;98081.72;5006275;28;20036;-76
2022/02/18 08:18:58;;;;;;;10.88;1.90;;;;;;;9.40;69.19;98052.44;5011013;28;20608;-78
2022/02/18 08:21:24;;;;;;;12.07;1.50;;;;;;;9.57;69.36;98076.28;5010288;28;20056;-74
2022/02/18 08:23:52;;;;;;;14.15;2.15;;;;;;;9.50;69.64;98051.16;5012827;28;20448;-78
2022/02/18 08:26:19;;;;;;;15.27;1.70;;;;;;;9.66;69.31;98069.56;5012052;28;20038;-72
2022/02/18 08:28:44;;;;;;;10.68;1.83;;;;;;;9.73;69.26;98075.75;5011426;28;20044;-73
2022/02/18 08:31:10;;;;;;;6.28;1.40;;;;;;;9.83;69.29;98062.63;5009203;28;20469;-71
2022/02/18 08:33:35;;;;;;;8.18;1.73;;;;;;;9.91;68.94;98068.81;5008490;28;20105;-74
2022/02/18 08:36:00;;;;;;;10.07;1.85;;;;;;;10.04;68.48;98066.03;5005816;28;20909;-71
2022/02/18 08:38:26;;;;;;;7.38;1.75;;;;;;;9.97;68.66;98043.63;5009242;28;20421;-73
2022/02/18 08:40:51;;;;;;;12.77;1.77;;;;;;;10.06;68.94;98042.28;5009276;28;20026;-73
2022/02/18 08:43:16;;;;;;;15.57;2.00;;;;;;;9.97;68.46;98032.81;5007416;28;20037;-71
2022/02/18 08:45:43;;;;;;;9.68;1.70;;;;;;;10.08;68.76;98026.69;5005824;28;20104;-73
2022/02/18 08:48:08;;;;;;;12.93;2.08;;;;;;;10.03;69.20;98024.69;5007152;28;20028;-74
2022/02/18 08:50:33;;;;;;;11.25;1.95;;;;;;;10.03;68.92;98011.16;5014255;28;20029;-72
2022/02/18 08:52:59;;;;;;;15.65;2.15;;;;;;;10.24;68.99;98023.47;5007122;28;20034;-72
2022/02/18 08:55:24;;;;;;;9.70;1.35;;;;;;;10.47;68.31;98013.94;5004011;28;21632;-73
2022/02/18 08:57:51;;;;;;;10.63;1.42;;;;;;;10.44;68.79;98020.63;4990106;28;20481;-70
2022/02/18 09:00:17;;;;;;;7.45;1.55;;;;;;;10.63;67.73;98013.34;4996906;28;20053;-71
2022/02/18 09:02:43;;;;;;;7.95;1.80;;;;;;;10.82;67.49;98003.41;4999587;28;20493;-72
2022/02/18 09:05:10;;;;;;;9.18;1.63;;;;;;;10.90;66.79;98008.53;5005652;28;20485;-70
2022/02/18 09:07:35;;;;;;;11.25;2.30;;;;;;;10.94;67.07;97984.53;5013697;28;20101;-72
2022/02/18 09:10:01;;;;;;;11.60;2.22;;;;;;;10.89;67.13;97981.66;5010508;28;20044;-73
2022/02/18 09:12:27;;;;;;;9.25;1.80;;;;;;;10.87;67.95;97979.22;5012342;28;20045;-73
2022/02/18 09:14:53;;;;;;;8.02;1.40;;;;;;;10.75;68.56;97971.00;5009103;28;20056;-72
2022/02/18 09:17:21;;;;;;;7.35;1.45;;;;;;;10.79;68.81;97971.38;5009588;28;20120;-76
2022/02/18 09:19:48;;;;;;;3.83;1.40;;;;;;;10.70;69.81;97954.59;5011055;28;20025;-75
2022/02/18 09:22:14;;;;;;;10.02;1.70;;;;;;;10.66;69.62;97956.13;5009767;28;20022;-73
2022/02/18 09:24:39;;;;;;;8.40;1.40;;;;;;;10.64;70.57;97957.41;5009790;28;20500;-72
2022/02/18 09:27:04;;;;;;;7.18;1.48;;;;;;;10.60;70.49;97943.47;5010719;28;20477;-74
2022/02/18 09:29:30;;;;;;;6.03;1.38;;;;;;;10.77;70.33;97946.44;5010855;28;20124;-74
2022/02/18 09:31:55;;;;;;;8.38;1.70;;;;;;;10.74;70.46;97947.72;5011065;28;20041;-74
2022/02/18 09:34:22;;;;;;;5.45;1.25;;;;;;;10.69;71.07;97930.50;5010129;28;20112;-74
2022/02/18 09:36:47;;;;;;;8.57;1.67;;;;;;;10.76;70.97;97933.94;5012363;28;20033;-75
2022/02/18 09:39:13;;;;;;;4.03;1.42;;;;;;;11.02;70.31;97946.31;5011538;28;20026;-73
2022/02/18 09:41:43;;;;;;;9.55;1.58;;;;;;;11.13;70.75;97945.59;5042541;28;20063;-75
2022/02/18 09:44:12;;;;;;;9.75;1.80;;;;;;;11.32;70.59;97940.13;5007616;28;20120;-72
2022/02/18 09:46:39;;;;;;;8.25;1.45;;;;;;;11.50;69.38;97937.38;5012323;28;20022;-73
2022/02/18 09:49:05;;;;;;;12.90;1.63;;;;;;;11.66;68.82;97932.31;5011881;28;20538;-73
2022/02/18 09:51:32;;;;;;;4.97;1.05;;;;;;;11.91;67.79;97924.88;5016675;28;20156;-73
2022/02/18 09:53:58;;;;;;;6.18;1.10;;;;;;;12.11;68.01;97929.97;5016159;28;20131;-74
2022/02/18 09:56:24;;;;;;;8.38;1.67;;;;;;;12.18;67.47;97916.28;5013489;28;20559;-71
2022/02/18 09:58:52;;;;;;;5.00;0.85;;;;;;;12.35;66.83;97906.41;5030974;28;20401;-75
2022/02/18 10:01:18;;;;;;;5.88;1.30;;;;;;;12.55;66.37;97907.91;5018184;28;20042;-74
2022/02/18 10:03:43;;;;;;;6.88;1.20;;;;;;;12.64;66.81;97912.72;5044178;28;20022;-74
2022/02/18 10:06:09;;;;;;;5.95;1.48;;;;;;;12.51;66.90;97904.84;5011442;28;20038;-76
2022/02/18 10:08:34;;;;;;;3.83;0.77;;;;;;;12.38;68.50;97886.09;5012423;28;20056;-77
2022/02/18 10:11:05;;;;;;;5.82;0.80;;;;;;;12.28;69.63;97887.50;5009934;28;20017;-78
2022/02/18 10:13:38;;;;;;;4.43;0.82;;;;;;;12.34;69.89;97884.91;5016987;28;20024;-77
2022/02/18 10:16:05;;;;;;;4.88;0.90;;;;;;;12.32;69.56;97859.94;5014289;28;20029;-76
2022/02/18 10:18:56;;;;;;;4.15;0.75;;;;;;;12.90;68.47;97877.97;5015471;28;20029;-73
2022/02/18 10:21:23;;;;;;;3.10;0.90;;;;;;;13.40;66.87;97876.50;5012326;28;20389;-74
2022/02/18 10:23:49;;;;;;;2.88;0.70;;;;;;;13.55;65.46;97857.75;5012202;28;20457;-74
2022/02/18 10:26:14;;;;;;;4.00;1.10;;;;;;;14.01;64.64;97869.34;5012634;28;20029;-74
2022/02/18 10:28:40;;;;;;;9.68;1.50;;;;;;;13.78;65.00;97851.31;5013595;28;20477;-73
2022/02/18 10:31:07;;;;;;;6.38;1.25;;;;;;;13.72;65.94;97858.56;5012890;28;20091;-73
2022/02/18 10:33:37;;;;;;;5.00;1.33;;;;;;;13.56;66.64;97864.81;5012054;28;20101;-75
2022/02/18 10:36:05;;;;;;;5.63;0.80;;;;;;;13.45;67.16;97850.25;5014196;28;20112;-75
2022/02/18 10:38:35;;;;;;;5.95;0.80;;;;;;;13.55;67.25;97849.59;5013395;28;20505;-74
2022/02/18 10:41:01;;;;;;;3.42;0.80;;;;;;;13.53;67.23;97846.31;5009616;28;20022;-71
2022/02/18 10:43:27;;;;;;;2.17;0.80;;;;;;;13.75;66.58;97847.22;5011038;28;20033;-75
2022/02/18 10:46:04;;;;;;;3.75;0.80;;;;;;;14.06;65.68;97827.81;5011434;28;20025;-73
2022/02/18 10:48:44;;;;;;;5.50;1.20;;;;;;;14.52;63.89;97834.72;5013324;28;20055;-75
2022/02/18 10:51:18;;;;;;;3.60;0.80;;;;;;;14.69;63.38;97819.16;5010735;28;20060;-75
2022/02/18 10:53:47;;;;;;;2.35;0.80;;;;;;;14.81;62.41;97801.88;5012867;28;20108;-74
2022/02/18 10:56:15;;;;;;;1.98;1.10;;;;;;;15.12;61.99;97812.03;5010790;28;20033;-75
2022/02/18 10:58:49;;;;;;;2.33;0.70;;;;;;;15.27;61.76;97808.63;5007183;28;20030;-75
2022/02/18 11:01:19;;;;;;;4.53;1.00;;;;;;;15.71;60.34;97796.75;5010033;28;20021;-73
2022/02/18 11:04:01;;;;;;;2.55;0.57;;;;;;;15.71;60.39;97788.56;5008713;28;20065;-74
2022/02/18 11:06:34;;;;;;;5.70;1.00;;;;;;;15.55;60.83;97777.53;5009489;28;20122;-72
2022/02/18 11:09:05;;;;;;;2.45;1.05;;;;;;;15.61;60.79;97766.66;5007227;28;20034;-76
2022/02/18 11:11:34;;;;;;;4.95;0.98;;;;;;;15.82;59.81;97763.00;5054541;22;20111;-75
2022/02/18 11:14:00;;;;;;;;;;;;;;;16.04;59.40;97748.44;5079806;28;20040;-73
2022/02/18 11:16:27;;;;;;;6.68;0.75;;;;;;;16.31;58.67;97735.44;5084583;28;19913;-73
2022/02/18 11:18:54;;;;;;;6.70;1.30;;;;;;;16.41;58.06;97721.84;5084989;28;20040;-73
2022/02/18 11:21:19;;;;;;;2.05;0.75;;;;;;;16.74;57.29;97711.56;5082526;28;20427;-71
2022/02/18 11:23:45;;;;;;;4.55;0.88;;;;;;;17.00;56.82;97725.28;5090910;28;20078;-72
2022/02/18 11:26:13;;;;;;;4.13;0.80;;;;;;;16.99;56.48;97720.91;5092164;28;20043;-73
2022/02/18 11:28:39;;;;;;;3.72;0.55;;;;;;;17.15;55.34;97716.28;5099695;28;20027;-67